12 | 12 | 2019

Daten Vortag

Wetterdaten von 10m Höhe gemessen, Station2

Datum / Zeit Intervall min Luftfeuchte % Temperatur °C absolut Luftdruck hPa Wind m/s Windbö m/s Richtung Relative Luftdruck hPa Taupunkt °C Windchill °C Niederschlag mm
11-12-2019 00:11 5 70 3.3 1011.2 11.2 17.3 S 1015.1 -1.6 -1.0 0.0
11-12-2019 00:16 5 70 3.4 1010.9 12.2 17.3 S 1014.8 -1.5 -1.5 0.0
11-12-2019 00:21 5 70 3.5 1010.6 8.6 15.8 S 1014.5 -1.5 0.9 0.0
11-12-2019 00:26 5 70 3.5 1010.4 13.3 20.9 SE 1014.3 -1.5 -1.9 0.0
11-12-2019 00:31 5 70 3.5 1010.4 12.2 17.3 S 1014.3 -1.5 -1.4 0.0
11-12-2019 00:36 5 70 3.6 1010.5 12.2 17.3 S 1014.4 -1.4 -1.2 0.0
11-12-2019 00:41 5 70 3.6 1010.6 13.3 20.9 S 1014.5 -1.4 -1.8 0.0
11-12-2019 00:46 5 70 3.5 1010.5 13.3 20.9 SW 1014.4 -1.5 -1.9 0.0
11-12-2019 00:51 5 70 3.5 1010.4 17.3 23.4 SE 1014.3 -1.5 -3.7 0.0
11-12-2019 00:56 5 70 3.6 1010.2 13.3 17.3 S 1014.1 -1.4 -1.8 0.0
11-12-2019 01:01 5 70 3.6 1010.0 15.8 22.0 SSE 1013.9 -1.4 -3.0 0.0
11-12-2019 01:06 5 70 3.5 1009.9 7.2 12.2 S 1013.8 -1.5 2.1 0.0
11-12-2019 01:11 5 70 3.6 1009.7 11.2 14.8 SE 1013.6 -1.4 -0.6 0.0
11-12-2019 01:16 5 69 3.7 1009.1 15.8 22.0 S 1013.0 -1.5 -2.9 0.0
11-12-2019 01:21 5 69 3.7 1009.4 9.7 13.3 S 1013.3 -1.5 0.4 0.0
11-12-2019 01:26 5 68 3.8 1009.3 17.3 22.0 SE 1013.2 -1.6 -3.4 0.0
11-12-2019 01:31 5 68 3.8 1009.3 11.2 15.8 S 1013.2 -1.6 -0.4 0.0
11-12-2019 01:36 5 69 3.7 1009.2 13.3 19.4 S 1013.1 -1.5 -1.7 0.0
11-12-2019 01:41 5 68 3.8 1009.0 12.2 17.3 S 1012.9 -1.6 -1.0 0.0
11-12-2019 01:46 5 68 3.8 1008.8 14.8 19.4 SSW 1012.7 -1.6 -2.3 0.0
11-12-2019 01:51 5 68 3.8 1008.5 22.0 35.6 S 1012.4 -1.6 -5.0 0.0
11-12-2019 01:56 5 67 3.8 1008.2 11.2 15.8 SE 1012.1 -1.8 -0.4 0.0
11-12-2019 02:01 5 68 3.8 1008.2 12.2 18.4 S 1012.1 -1.6 -1.0 0.0
11-12-2019 02:06 5 68 3.8 1008.0 12.2 18.4 S 1011.9 -1.6 -1.0 0.0
11-12-2019 02:11 5 68 3.8 1008.1 17.3 28.1 NEE 1012.0 -1.6 -3.4 0.0
11-12-2019 02:16 5 68 3.8 1008.1 18.4 25.6 SW 1012.0 -1.6 -3.8 0.0
11-12-2019 02:21 5 68 3.8 1008.0 11.2 17.3 SE 1011.9 -1.6 -0.4 0.0
11-12-2019 02:26 5 68 3.8 1008.0 9.7 15.8 SE 1011.9 -1.6 0.5 0.0
11-12-2019 02:31 5 68 3.8 1007.9 13.3 18.4 S 1011.8 -1.6 -1.6 0.0
11-12-2019 02:36 5 68 3.8 1007.7 13.3 18.4 S 1011.6 -1.6 -1.6 0.0
11-12-2019 02:41 5 67 3.9 1007.6 13.3 20.9 S 1011.5 -1.7 -1.5 0.0
11-12-2019 02:46 5 68 3.8 1007.2 12.2 14.8 S 1011.1 -1.6 -1.0 0.0
11-12-2019 02:51 5 67 3.9 1007.2 12.2 24.5 SW 1011.1 -1.7 -0.9 0.0
11-12-2019 02:56 5 68 3.9 1007.1 14.8 20.9 S 1011.0 -1.5 -2.2 0.0
11-12-2019 03:01 5 68 3.9 1007.2 8.6 12.2 S 1011.1 -1.5 1.4 0.0
11-12-2019 03:06 5 69 3.9 1007.0 14.8 19.4 S 1010.9 -1.3 -2.2 0.0
11-12-2019 03:11 5 68 4.0 1007.0 7.2 11.2 S 1010.9 -1.4 2.6 0.0
11-12-2019 03:16 5 68 4.0 1007.1 8.6 12.2 S 1011.0 -1.4 1.5 0.0
11-12-2019 03:21 5 67 4.1 1007.0 12.2 20.9 S 1010.9 -1.5 -0.7 0.0
11-12-2019 03:26 5 67 4.2 1006.9 12.2 18.4 SSW 1010.8 -1.4 -0.5 0.0
11-12-2019 03:31 5 66 4.3 1006.8 8.6 11.2 SW 1010.7 -1.5 1.8 0.0
11-12-2019 03:36 5 65 4.3 1006.7 11.2 19.4 SE 1010.6 -1.7 0.2 0.0
11-12-2019 03:41 5 65 4.3 1006.7 11.2 14.8 S 1010.6 -1.7 0.2 0.0
11-12-2019 03:46 5 65 4.4 1006.6 15.8 24.5 SW 1010.5 -1.6 -2.0 0.0
11-12-2019 03:51 5 65 4.4 1006.3 6.1 8.6 SW 1010.2 -1.6 4.4 0.0
11-12-2019 03:56 5 65 4.4 1006.3 9.7 13.3 SSW 1010.2 -1.6 1.2 0.0
11-12-2019 04:01 5 64 4.5 1006.4 11.2 14.8 S 1010.3 -1.7 0.4 0.0
11-12-2019 04:06 5 64 4.5 1006.5 11.2 14.8 S 1010.4 -1.7 0.4 0.0
11-12-2019 04:11 5 65 4.5 1006.5 12.2 17.3 SW 1010.4 -1.5 -0.2 0.0
11-12-2019 04:16 5 65 4.5 1006.3 13.3 15.8 S 1010.2 -1.5 -0.7 0.0
11-12-2019 04:21 5 65 4.5 1006.4 9.7 12.2 S 1010.3 -1.5 1.3 0.0
11-12-2019 04:26 5 65 4.6 1006.3 12.2 13.3 S 1010.2 -1.4 -0.1 0.0
11-12-2019 04:31 5 65 4.6 1006.2 12.2 15.8 E 1010.1 -1.4 -0.1 0.0
11-12-2019 04:36 5 67 4.5 1006.1 13.3 17.3 SSW 1010.0 -1.1 -0.7 0.0
11-12-2019 04:41 5 67 4.5 1006.1 17.3 19.4 S 1010.0 -1.1 -2.5 0.0
11-12-2019 04:46 5 67 4.5 1005.9 12.2 17.3 S 1009.8 -1.1 -0.2 0.0
11-12-2019 04:51 5 69 4.4 1006.0 12.2 15.8 SW 1009.9 -0.8 -0.3 0.0
11-12-2019 04:56 5 70 4.4 1005.8 8.6 11.2 S 1009.7 -0.6 1.9 0.0
11-12-2019 05:01 5 70 4.3 1005.8 9.7 15.8 S 1009.7 -0.7 1.1 0.0
11-12-2019 05:06 5 72 4.1 1005.7 15.8 19.4 S 1009.6 -0.5 -2.4 0.0
11-12-2019 05:11 5 74 3.9 1005.8 15.8 22.0 S 1009.7 -0.3 -2.6 0.0
11-12-2019 05:16 5 76 3.8 1005.7 12.2 14.8 SE 1009.6 0.0 -1.0 0.0
11-12-2019 05:21 5 77 3.8 1005.7 15.8 19.4 S 1009.6 0.1 -2.8 0.0
11-12-2019 05:26 5 78 3.7 1005.6 13.3 19.4 SSW 1009.5 0.2 -1.7 0.0
11-12-2019 05:31 5 78 3.7 1005.7 13.3 18.4 S 1009.6 0.2 -1.7 0.0
11-12-2019 05:36 5 78 3.7 1005.6 14.8 22.0 SE 1009.5 0.2 -2.4 0.0
11-12-2019 05:41 5 78 3.8 1005.5 14.8 18.4 SE 1009.4 0.3 -2.3 0.3
11-12-2019 05:46 5 78 3.8 1005.4 8.6 12.2 SE 1009.3 0.3 1.3 0.3
11-12-2019 05:51 5 79 3.7 1005.6 8.6 12.2 S 1009.5 0.4 1.1 0.3
11-12-2019 05:56 5 80 3.8 1005.4 12.2 17.3 SW 1009.3 0.7 -1.0 0.3
11-12-2019 06:01 5 80 3.8 1005.4 12.2 14.8 S 1009.3 0.7 -1.0 0.3
11-12-2019 06:06 5 80 3.8 1005.5 12.2 14.8 S 1009.4 0.7 -1.0 0.3
11-12-2019 06:11 5 79 4.0 1005.5 14.8 19.4 SW 1009.4 0.7 -2.0 0.3
11-12-2019 06:16 5 78 4.1 1005.4 12.2 15.8 SW 1009.3 0.6 -0.7 0.3
11-12-2019 06:21 5 78 4.1 1005.5 11.2 13.3 SSE 1009.4 0.6 0.0 0.3
11-12-2019 06:26 5 78 4.1 1005.4 6.1 7.2 S 1009.3 0.6 4.1 0.3
11-12-2019 06:31 5 78 4.1 1005.5 9.7 12.2 S 1009.4 0.6 0.8 0.3
11-12-2019 06:36 5 78 4.2 1005.4 13.3 15.8 S 1009.3 0.7 -1.1 0.3
11-12-2019 06:41 5 78 4.2 1005.5 11.2 15.8 S 1009.4 0.7 0.1 0.0
11-12-2019 06:46 5 78 4.2 1005.5 13.3 20.9 S 1009.4 0.7 -1.1 0.0
11-12-2019 06:51 5 78 4.2 1005.5 11.2 14.8 S 1009.4 0.7 0.1 0.0
11-12-2019 06:56 5 78 4.3 1005.4 9.7 15.8 S 1009.3 0.8 1.1 0.0
11-12-2019 07:01 5 79 4.2 1005.4 11.2 13.3 SW 1009.3 0.9 0.1 0.0
11-12-2019 07:06 5 79 4.3 1005.5 11.2 14.8 S 1009.4 1.0 0.2 0.0
11-12-2019 07:11 5 79 4.3 1005.5 11.2 13.3 SE 1009.4 1.0 0.2 0.0
11-12-2019 07:16 5 80 4.3 1005.6 18.4 22.0 SW 1009.5 1.2 -3.2 0.0
11-12-2019 07:21 5 80 4.3 1005.5 13.3 15.8 S 1009.4 1.2 -1.0 0.0
11-12-2019 07:26 5 80 4.3 1005.5 18.4 23.4 E 1009.4 1.2 -3.2 0.0
11-12-2019 07:31 5 80 4.3 1005.5 15.8 19.4 S 1009.4 1.2 -2.2 0.0
11-12-2019 07:36 5 80 4.4 1005.4 9.7 12.2 SW 1009.3 1.3 1.2 0.0
11-12-2019 07:41 5 80 4.4 1005.5 12.2 15.8 S 1009.4 1.3 -0.3 0.0
11-12-2019 07:46 5 79 4.4 1005.5 12.2 14.8 S 1009.4 1.1 -0.3 0.0
11-12-2019 07:51 5 79 4.4 1005.4 15.8 23.4 SSW 1009.3 1.1 -2.0 0.0
11-12-2019 07:56 5 79 4.4 1005.5 14.8 15.8 SW 1009.4 1.1 -1.6 0.0
11-12-2019 08:01 5 79 4.5 1005.6 18.4 22.0 S 1009.5 1.2 -2.9 0.0
11-12-2019 08:06 5 79 4.5 1005.4 18.4 22.0 S 1009.3 1.2 -2.9 0.0
11-12-2019 08:11 5 80 4.5 1005.4 17.3 19.4 S 1009.3 1.4 -2.5 0.0
11-12-2019 08:16 5 80 4.5 1005.4 14.8 19.4 S 1009.3 1.4 -1.4 0.0
11-12-2019 08:21 5 80 4.5 1005.6 14.8 23.4 SW 1009.5 1.4 -1.4 0.0
11-12-2019 08:26 5 80 4.5 1005.5 15.8 22.0 SSW 1009.4 1.4 -1.9 0.0
11-12-2019 08:31 5 80 4.5 1005.4 12.2 15.8 SSW 1009.3 1.4 -0.2 0.0
11-12-2019 08:36 5 80 4.5 1005.5 13.3 19.4 S 1009.4 1.4 -0.7 0.0
11-12-2019 08:41 5 80 4.5 1005.5 11.2 14.8 SW 1009.4 1.4 0.4 0.0
11-12-2019 08:46 5 80 4.5 1005.5 7.2 11.2 SWW 1009.4 1.4 3.1 0.0
11-12-2019 08:51 5 80 4.5 1005.5 14.8 19.4 S 1009.4 1.4 -1.4 0.0
11-12-2019 08:56 5 80 4.5 1005.5 11.2 13.3 SSW 1009.4 1.4 0.4 0.0
11-12-2019 09:01 5 80 4.5 1005.4 8.6 11.2 SSW 1009.3 1.4 2.0 0.0
11-12-2019 09:06 5 80 4.5 1005.7 9.7 17.3 SW 1009.6 1.4 1.3 0.0
11-12-2019 09:11 5 81 4.5 1005.8 9.7 13.3 S 1009.7 1.5 1.3 0.0
11-12-2019 09:16 5 81 4.5 1005.7 14.8 18.4 SWW 1009.6 1.5 -1.4 0.0
11-12-2019 09:21 5 81 4.5 1005.7 11.2 13.3 SW 1009.6 1.5 0.4 0.0
11-12-2019 09:26 5 81 4.5 1005.7 11.2 13.3 SWW 1009.6 1.5 0.4 0.0
11-12-2019 09:31 5 82 4.5 1005.6 7.2 9.7 W 1009.5 1.7 3.1 0.0
11-12-2019 09:36 5 82 4.5 1005.7 15.8 19.4 SW 1009.6 1.7 -1.9 0.0
11-12-2019 09:41 5 82 4.5 1005.6 5.0 7.2 SW 1009.5 1.7 4.5 0.0
11-12-2019 09:46 5 82 4.5 1005.7 7.2 9.7 SW 1009.6 1.7 3.1 0.0
11-12-2019 09:51 5 82 4.5 1005.7 8.6 11.2 S 1009.6 1.7 2.0 0.0
11-12-2019 09:56 5 83 4.6 1005.8 11.2 12.2 SSW 1009.7 2.0 0.5 0.0
11-12-2019 10:01 5 83 4.6 1005.8 8.6 11.2 SSE 1009.7 2.0 2.1 0.0
11-12-2019 10:06 5 83 4.6 1005.8 8.6 11.2 SSE 1009.7 2.0 2.1 0.0
11-12-2019 10:11 5 83 4.6 1005.8 5.0 6.1 SE 1009.7 2.0 4.6 0.0
11-12-2019 10:16 5 83 4.6 1005.9 5.0 6.1 SW 1009.8 2.0 4.6 0.0
11-12-2019 10:21 5 83 4.6 1005.8 8.6 13.3 S 1009.7 2.0 2.1 0.0
11-12-2019 10:26 5 83 4.6 1005.7 5.0 7.2 S 1009.6 2.0 4.6 0.0
11-12-2019 10:31 5 83 4.6 1005.9 8.6 13.3 SW 1009.8 2.0 2.1 0.0
11-12-2019 10:36 5 83 4.6 1005.9 11.2 13.3 SW 1009.8 2.0 0.5 0.0
11-12-2019 10:41 5 83 4.6 1006.0 7.2 8.6 SW 1009.9 2.0 3.2 0.0
11-12-2019 10:46 5 83 4.6 1006.0 12.2 14.8 S 1009.9 2.0 -0.1 0.0
11-12-2019 10:51 5 83 4.6 1005.9 7.2 9.7 SW 1009.8 2.0 3.2 0.0
11-12-2019 10:56 5 84 4.6 1005.7 11.2 12.2 SSW 1009.6 2.1 0.5 0.0
11-12-2019 11:01 5 84 4.6 1005.8 7.2 8.6 S 1009.7 2.1 3.2 0.3
11-12-2019 11:06 5 84 4.6 1005.7 9.7 12.2 S 1009.6 2.1 1.4 0.3
11-12-2019 11:11 5 84 4.6 1005.7 3.6 6.1 SW 1009.6 2.1 4.6 0.3
11-12-2019 11:16 5 84 4.6 1005.7 8.6 11.2 SW 1009.6 2.1 2.1 0.3
11-12-2019 11:21 5 85 4.6 1005.5 6.1 8.6 SE 1009.4 2.3 4.6 0.3
11-12-2019 11:26 5 85 4.6 1005.3 5.0 6.1 S 1009.2 2.3 4.6 0.6
11-12-2019 11:31 5 85 4.6 1005.4 6.1 8.6 S 1009.3 2.3 4.6 0.6
11-12-2019 11:36 5 85 4.6 1005.3 6.1 8.6 S 1009.2 2.3 4.6 0.6
11-12-2019 11:41 5 85 4.6 1005.3 6.1 9.7 S 1009.2 2.3 4.6 0.9
11-12-2019 11:46 5 85 4.6 1005.2 9.7 11.2 SSE 1009.1 2.3 1.4 0.9
11-12-2019 11:51 5 85 4.6 1005.1 7.2 11.2 S 1009.0 2.3 3.2 0.9
11-12-2019 11:56 5 85 4.6 1005.1 8.6 9.7 SW 1009.0 2.3 2.1 1.2
11-12-2019 12:01 5 85 4.5 1005.1 2.5 6.1 S 1009.0 2.2 4.5 0.9
11-12-2019 12:06 5 85 4.5 1005.1 2.5 6.1 S 1009.0 2.2 4.5 0.9
11-12-2019 12:11 5 85 4.5 1005.1 5.0 7.2 S 1009.0 2.2 4.5 1.2
11-12-2019 12:16 5 85 4.5 1005.1 5.0 6.1 S 1009.0 2.2 4.5 1.2
11-12-2019 12:21 5 85 4.5 1005.1 7.2 9.7 S 1009.0 2.2 3.1 1.5
11-12-2019 12:26 5 85 4.5 1005.0 5.0 7.2 S 1008.9 2.2 4.5 1.2
11-12-2019 12:31 5 85 4.5 1004.9 5.0 6.1 S 1008.8 2.2 4.5 1.2
11-12-2019 12:36 5 85 4.5 1005.0 3.6 6.1 S 1008.9 2.2 4.5 1.5
11-12-2019 12:44 5 85 4.5 1004.7 6.1 7.2 SE 1008.6 2.2 4.5 1.2
11-12-2019 12:49 5 85 4.4 1004.7 5.0 7.2 S 1008.6 2.1 4.4 1.2
11-12-2019 12:54 5 85 4.4 1004.8 7.2 8.6 SSE 1008.7 2.1 3.0 1.2
11-12-2019 12:59 5 85 4.4 1004.7 8.6 11.2 SW 1008.6 2.1 1.9 1.2
11-12-2019 13:04 5 85 4.5 1004.7 6.1 8.6 S 1008.6 2.2 4.5 1.2
11-12-2019 13:09 5 85 4.5 1004.5 7.2 11.2 S 1008.4 2.2 3.1 1.2
11-12-2019 13:14 5 85 4.5 1004.5 5.0 7.2 S 1008.4 2.2 4.5 0.9
11-12-2019 13:19 5 85 4.5 1004.6 5.0 6.1 SW 1008.5 2.2 4.5 0.9
11-12-2019 13:24 5 85 4.5 1004.5 5.0 8.6 S 1008.4 2.2 4.5 0.9
11-12-2019 13:29 5 85 4.5 1004.5 5.0 7.2 SW 1008.4 2.2 4.5 0.9
11-12-2019 13:34 5 85 4.5 1004.4 5.0 6.1 SE 1008.3 2.2 4.5 0.9
11-12-2019 13:39 5 85 4.5 1004.2 2.5 6.1 S 1008.1 2.2 4.5 0.6
11-12-2019 13:44 5 85 4.5 1004.2 5.0 7.2 S 1008.1 2.2 4.5 0.6
11-12-2019 13:49 5 85 4.6 1004.3 5.0 6.1 S 1008.2 2.3 4.6 0.9
11-12-2019 13:54 5 85 4.6 1004.2 2.5 3.6 S 1008.1 2.3 4.6 0.9
11-12-2019 13:59 5 85 4.6 1004.2 3.6 5.0 SE 1008.1 2.3 4.6 0.6
11-12-2019 14:04 5 85 4.6 1004.2 2.5 3.6 SW 1008.1 2.3 4.6 0.6
11-12-2019 14:09 5 85 4.6 1004.2 2.5 3.6 SW 1008.1 2.3 4.6 0.6
11-12-2019 14:14 5 85 4.6 1004.1 3.6 5.0 SE 1008.0 2.3 4.6 0.9
11-12-2019 14:19 5 85 4.6 1004.0 2.5 3.6 SE 1007.9 2.3 4.6 0.9
11-12-2019 14:24 5 85 4.6 1004.0 3.6 7.2 SW 1007.9 2.3 4.6 0.6
11-12-2019 14:29 5 85 4.6 1004.0 5.0 6.1 SSW 1007.9 2.3 4.6 0.9
11-12-2019 14:34 5 86 4.6 1003.9 3.6 5.0 S 1007.8 2.5 4.6 0.9
11-12-2019 14:39 5 86 4.6 1004.0 2.5 3.6 SSE 1007.9 2.5 4.6 0.9
11-12-2019 14:44 5 86 4.5 1003.9 3.6 6.1 SWW 1007.8 2.4 4.5 0.9
11-12-2019 14:49 5 86 4.5 1003.9 3.6 6.1 SE 1007.8 2.4 4.5 0.6
11-12-2019 14:54 5 86 4.5 1004.0 5.0 7.2 S 1007.9 2.4 4.5 0.9
11-12-2019 14:59 5 86 4.5 1004.0 2.5 3.6 SE 1007.9 2.4 4.5 0.9
11-12-2019 15:04 5 86 4.5 1003.9 2.5 3.6 S 1007.8 2.4 4.5 0.9
11-12-2019 15:09 5 86 4.5 1003.9 5.0 6.1 SE 1007.8 2.4 4.5 1.2
11-12-2019 15:14 5 86 4.5 1003.9 5.0 7.2 S 1007.8 2.4 4.5 0.9
11-12-2019 15:19 5 86 4.5 1003.9 1.1 3.6 S 1007.8 2.4 4.5 0.9
11-12-2019 15:24 5 86 4.5 1003.9 3.6 5.0 S 1007.8 2.4 4.5 0.9
11-12-2019 15:29 5 86 4.5 1003.7 3.6 5.0 S 1007.6 2.4 4.5 0.6
11-12-2019 15:34 5 86 4.5 1003.9 2.5 3.6 SE 1007.8 2.4 4.5 0.6
11-12-2019 15:39 5 86 4.5 1003.8 3.6 6.1 SSE 1007.7 2.4 4.5 0.6
11-12-2019 15:44 5 86 4.5 1003.6 3.6 5.0 SSE 1007.5 2.4 4.5 0.9
11-12-2019 15:49 5 86 4.5 1003.7 5.0 7.2 SSE 1007.6 2.4 4.5 0.9
11-12-2019 15:54 5 86 4.5 1003.6 3.6 5.0 SE 1007.5 2.4 4.5 0.6
11-12-2019 15:59 5 86 4.5 1003.7 8.6 9.7 S 1007.6 2.4 2.0 0.6
11-12-2019 16:04 5 86 4.4 1003.6 6.1 7.2 SE 1007.5 2.3 4.4 0.6
11-12-2019 16:09 5 86 4.4 1003.5 6.1 7.2 SE 1007.4 2.3 4.4 0.3
11-12-2019 16:14 5 86 4.4 1003.4 5.0 6.1 SSE 1007.3 2.3 4.4 0.6
11-12-2019 16:19 5 86 4.4 1003.4 3.6 5.0 S 1007.3 2.3 4.4 0.6
11-12-2019 16:24 5 86 4.4 1003.4 3.6 6.1 S 1007.3 2.3 4.4 0.6
11-12-2019 16:29 5 86 4.4 1003.5 5.0 7.2 S 1007.4 2.3 4.4 0.6
11-12-2019 16:34 5 86 4.4 1003.3 5.0 6.1 S 1007.2 2.3 4.4 0.6
11-12-2019 16:39 5 86 4.4 1003.3 9.7 11.2 S 1007.2 2.3 1.2 0.6
11-12-2019 16:44 5 86 4.4 1003.2 3.6 7.2 S 1007.1 2.3 4.4 0.3
11-12-2019 16:49 5 86 4.4 1003.1 3.6 6.1 S 1007.0 2.3 4.4 0.3
11-12-2019 16:54 5 86 4.3 1003.1 5.0 7.2 SSW 1007.0 2.2 4.3 0.3
11-12-2019 16:59 5 86 4.3 1003.0 3.6 5.0 S 1006.9 2.2 4.3 0.3
11-12-2019 17:04 5 86 4.3 1003.1 6.1 8.6 SSE 1007.0 2.2 4.3 0.6
11-12-2019 17:09 5 86 4.3 1003.0 2.5 3.6 S 1006.9 2.2 4.3 0.6
11-12-2019 17:14 5 86 4.3 1002.9 3.6 6.1 SE 1006.8 2.2 4.3 0.3
11-12-2019 17:19 5 86 4.3 1002.8 3.6 5.0 E 1006.7 2.2 4.3 0.3
11-12-2019 17:24 5 86 4.3 1002.8 5.0 8.6 S 1006.7 2.2 4.3 0.3
11-12-2019 17:29 5 86 4.3 1002.7 3.6 5.0 S 1006.6 2.2 4.3 0.3
11-12-2019 17:34 5 86 4.3 1002.7 5.0 7.2 SE 1006.6 2.2 4.3 0.3
11-12-2019 17:39 5 86 4.3 1002.6 6.1 7.2 S 1006.5 2.2 4.3 0.3
11-12-2019 17:44 5 86 4.3 1002.5 5.0 6.1 S 1006.4 2.2 4.3 0.3
11-12-2019 17:49 5 86 4.3 1002.6 2.5 5.0 S 1006.5 2.2 4.3 0.3
11-12-2019 17:54 5 86 4.2 1002.6 3.6 7.2 SE 1006.5 2.1 4.2 0.6
11-12-2019 17:59 5 86 4.2 1002.6 3.6 5.0 S 1006.5 2.1 4.2 0.6
11-12-2019 18:04 5 86 4.2 1002.5 6.1 7.2 SE 1006.4 2.1 4.2 0.3
11-12-2019 18:09 5 86 4.2 1002.6 6.1 7.2 SE 1006.5 2.1 4.2 0.3
11-12-2019 18:14 5 86 4.2 1002.3 7.2 8.6 SE 1006.2 2.1 2.8 0.3
11-12-2019 18:19 5 86 4.2 1002.3 5.0 7.2 S 1006.2 2.1 4.2 0.3
11-12-2019 18:24 5 86 4.2 1002.3 6.1 7.2 E 1006.2 2.1 4.2 0.3
11-12-2019 18:29 5 86 4.2 1002.2 3.6 6.1 SW 1006.1 2.1 4.2 0.3
11-12-2019 18:34 5 86 4.1 1002.2 2.5 6.1 S 1006.1 2.0 4.1 0.3
11-12-2019 18:39 5 86 4.1 1002.3 3.6 5.0 S 1006.2 2.0 4.1 0.3
11-12-2019 18:44 5 86 4.1 1002.3 3.6 5.0 SSE 1006.2 2.0 4.1 0.3
11-12-2019 18:49 5 86 4.1 1002.3 5.0 7.2 SE 1006.2 2.0 4.1 0.3
11-12-2019 18:54 5 86 4.1 1002.3 2.5 3.6 SSE 1006.2 2.0 4.1 0.0
11-12-2019 18:59 5 86 4.1 1002.3 2.5 5.0 S 1006.2 2.0 4.1 0.3
11-12-2019 19:04 5 86 4.1 1002.2 2.5 3.6 E 1006.1 2.0 4.1 0.3
11-12-2019 19:09 5 86 4.1 1002.2 3.6 5.0 S 1006.1 2.0 4.1 0.3
11-12-2019 19:14 5 86 4.1 1002.0 2.5 3.6 E 1005.9 2.0 4.1 0.3
11-12-2019 19:19 5 86 4.1 1002.1 2.5 3.6 S 1006.0 2.0 4.1 0.3
11-12-2019 19:24 5 86 4.1 1002.1 2.5 5.0 S 1006.0 2.0 4.1 0.3
11-12-2019 19:29 5 86 4.0 1002.0 3.6 5.0 SE 1005.9 1.9 4.0 0.3
11-12-2019 19:34 5 86 4.0 1002.1 2.5 5.0 W 1006.0 1.9 4.0 0.6
11-12-2019 19:39 5 86 4.0 1002.1 2.5 3.6 SE 1006.0 1.9 4.0 0.6
11-12-2019 19:44 5 86 4.0 1002.1 2.5 3.6 S 1006.0 1.9 4.0 0.6
11-12-2019 19:49 5 86 4.0 1002.0 2.5 3.6 SE 1005.9 1.9 4.0 0.6
11-12-2019 19:54 5 86 4.0 1001.9 1.1 2.5 S 1005.8 1.9 4.0 0.6
11-12-2019 19:59 5 86 4.0 1001.8 1.1 2.5 SE 1005.7 1.9 4.0 0.3
11-12-2019 20:04 5 86 4.0 1001.9 3.6 5.0 SE 1005.8 1.9 4.0 0.3
11-12-2019 20:09 5 86 4.0 1001.7 3.6 5.0 SE 1005.6 1.9 4.0 0.3
11-12-2019 20:14 5 86 3.9 1001.8 2.5 3.6 SE 1005.7 1.8 3.9 0.3
11-12-2019 20:19 5 86 3.9 1001.8 2.5 3.6 SE 1005.7 1.8 3.9 0.6
11-12-2019 20:24 5 86 3.9 1001.8 3.6 5.0 SE 1005.7 1.8 3.9 0.6
11-12-2019 20:29 5 86 3.9 1001.8 6.1 7.2 S 1005.7 1.8 3.9 0.6
11-12-2019 20:34 5 86 3.9 1001.8 3.6 5.0 SSE 1005.7 1.8 3.9 0.3
11-12-2019 20:39 5 86 3.9 1001.7 2.5 3.6 SE 1005.6 1.8 3.9 0.3
11-12-2019 20:44 5 86 3.9 1001.6 2.5 3.6 S 1005.5 1.8 3.9 0.3
11-12-2019 20:49 5 86 3.9 1001.7 2.5 5.0 SW 1005.6 1.8 3.9 0.3
11-12-2019 20:54 5 86 3.8 1001.5 5.0 7.2 SE 1005.4 1.7 3.8 0.3
11-12-2019 20:59 5 86 3.8 1001.5 3.6 6.1 SE 1005.4 1.7 3.8 0.3
11-12-2019 21:04 5 86 3.8 1001.4 3.6 5.0 SW 1005.3 1.7 3.8 0.3
11-12-2019 21:09 5 86 3.8 1001.4 2.5 3.6 SE 1005.3 1.7 3.8 0.3
11-12-2019 21:14 5 86 3.8 1001.4 1.1 2.5 SSE 1005.3 1.7 3.8 0.3
11-12-2019 21:19 5 86 3.7 1001.3 2.5 5.0 S 1005.2 1.6 3.7 0.3
11-12-2019 21:24 5 86 3.7 1001.3 6.1 7.2 SW 1005.2 1.6 3.7 0.3
11-12-2019 21:29 5 85 3.7 1001.3 2.5 3.6 S 1005.2 1.4 3.7 0.3
11-12-2019 21:34 5 85 3.7 1001.1 5.0 8.6 S 1005.0 1.4 3.7 0.3
11-12-2019 21:39 5 85 3.6 1001.2 3.6 7.2 SSE 1005.1 1.3 3.6 0.3
11-12-2019 21:44 5 85 3.6 1001.2 6.1 8.6 S 1005.1 1.3 3.6 0.3
11-12-2019 21:49 5 85 3.6 1001.2 5.0 6.1 S 1005.1 1.3 3.6 0.3
11-12-2019 21:54 5 85 3.6 1001.2 3.6 6.1 S 1005.1 1.3 3.6 0.3
11-12-2019 21:59 5 85 3.5 1001.1 3.6 6.1 S 1005.0 1.2 3.5 0.3
11-12-2019 22:04 5 85 3.5 1001.1 2.5 5.0 S 1005.0 1.2 3.5 0.3
11-12-2019 22:09 5 85 3.5 1001.1 2.5 5.0 S 1005.0 1.2 3.5 0.3
11-12-2019 22:14 5 85 3.4 1001.1 3.6 5.0 S 1005.0 1.1 3.4 0.3
11-12-2019 22:19 5 85 3.4 1001.0 3.6 7.2 SSW 1004.9 1.1 3.4 0.0
11-12-2019 22:24 5 85 3.4 1000.9 5.0 6.1 S 1004.8 1.1 3.4 0.0
11-12-2019 22:29 5 85 3.4 1000.8 2.5 5.0 SE 1004.7 1.1 3.4 0.3
11-12-2019 22:34 5 85 3.3 1000.7 3.6 6.1 S 1004.6 1.0 3.3 0.3
11-12-2019 22:39 5 85 3.3 1000.8 5.0 7.2 S 1004.7 1.0 3.3 0.3
11-12-2019 22:44 5 85 3.2 1000.8 3.6 5.0 SE 1004.7 0.9 3.2 0.3
11-12-2019 22:49 5 85 3.2 1000.7 3.6 6.1 S 1004.6 0.9 3.2 0.3
11-12-2019 22:54 5 84 3.1 1000.7 2.5 5.0 S 1004.6 0.7 3.1 0.3
11-12-2019 22:59 5 84 3.1 1000.7 3.6 5.0 S 1004.6 0.7 3.1 0.3
11-12-2019 23:04 5 84 3.0 1000.5 3.6 6.1 S 1004.4 0.6 3.0 0.6
11-12-2019 23:09 5 84 2.9 1000.4 6.1 7.2 S 1004.3 0.5 2.9 0.6
11-12-2019 23:14 5 84 2.9 1000.5 2.5 3.6 S 1004.4 0.5 2.9 0.6
11-12-2019 23:19 5 84 2.8 1000.4 2.5 7.2 SW 1004.3 0.4 2.8 0.6
11-12-2019 23:24 5 84 2.7 1000.3 2.5 5.0 S 1004.2 0.3 2.7 0.6
11-12-2019 23:29 5 84 2.7 1000.4 3.6 6.1 S 1004.3 0.3 2.7 0.3
11-12-2019 23:34 5 84 2.7 1000.3 3.6 6.1 S 1004.2 0.3 2.7 0.3
11-12-2019 23:39 5 84 2.6 1000.4 3.6 6.1 SE 1004.3 0.2 2.6 0.6
11-12-2019 23:44 5 84 2.5 1000.3 2.5 3.6 S 1004.2 0.1 2.5 0.6
11-12-2019 23:49 5 84 2.5 1000.1 3.6 5.0 SW 1004.0 0.1 2.5 0.6
11-12-2019 23:54 5 84 2.4 1000.1 2.5 3.6 S 1004.0 0.0 2.4 0.6
11-12-2019 23:59 5 84 2.3 1000.1 1.1 2.5 S 1004.0 -0.1 2.3 0.6

                                                                              Tabelle: 07 : 00 UHR

STATIONHÖHELUFTD.TEMP.T-MinT-MaxU%RR1RR12SSSDDFFFXWetter+WolkenBöen
UFS TW Ems 0 ------ --- --- --- --- ---- --- --- -- --- --- --- ---
UFS Deutsche Bucht 0 ------ --- --- --- --- ---- --- --- -- --- --- --- ---
Helgoland 4 1005.2 7.2 5.7 7.3 91 0.0 0 0 SW 33 57 --- Windböen
List/Sylt 26 1003.3 7.3 4.9 7.5 89 0.0 0 0 SW 31 48 --- ---
Schleswig 43 1005.9 4.8 3.3 5.6 94 0.6 2 0 SW 23 44 leichter Regen ---
Leuchtturm Kiel 5 1006.2 5.0 3.8 6.1 85 ---- --- --- SW 54 73 --- Sturmböen
Kiel 27 1006.5 4.9 3.4 5.7 86 0.0 0 0 SW 21 42 Regen ---
Fehmarn 3 1007.3 5.0 3.6 5.0 76 0.0 0 0 S 22 42 --- ---
Arkona 42 1009.6 2.4 2.1 3.2 86 0.0 0 0 SW 44 56 Regen Windböen
Norderney 11 1006.0 5.7 4.9 6.0 97 0.0 2 0 S 21 36 --- ---
Leuchtt. Alte Weser 32 1005.7 5.9 4.5 7.0 95 ---- --- --- SW 47 --- --- ---
Cuxhaven 5 1007.0 5.5 3.8 6.6 93 0.8 1 0 SW 19 43 leichter Regen ---
Hamburg-Flh. 11 1008.6 5.5 3.4 6.7 75 0.0 0 0 SW 28 44 Regen ---
Schwerin 59 1009.9 2.7 2.2 4.0 92 0.0 1 0 S 22 49 Regen ---
Rostock 4 1009.2 3.4 2.7 3.9 85 0.0 0 0 S 17 45 --- ---
Greifswald 2 1010.9 2.7 1.3 3.1 81 0.1 0 0 S 14 38 leichter Regen ---
Emden 0 1006.8 5.8 4.8 6.2 95 0.2 2 0 S 17 32 Regen ---
Bremen-Flh. 5 1008.9 5.5 3.2 6.7 85 0.0 0 0 SW 19 37 leichter Regen ---
Lüchow 17 1011.3 3.3 --- --- 93 0.5 --- --- -- --- 24 leichter Regen ---
Marnitz 81 1011.2 2.1 1.5 2.8 90 ---- --- 0 SW 18 35 leichter Regen ---
Waren 70 1011.4 2.9 1.8 3.0 80 0.0 0 0 S 29 43 leichter Regen ---
Neuruppin 38 1012.9 2.0 0.2 2.1 78 0.0 0 0 S 10 20 --- ---
Angermünde 56 1014.0 1.9 0.6 1.9 69 0.0 0 0 S 17 31 --- ---
Münster/Osnabr.-Flh. 48 1009.9 4.4 4.2 7.2 95 0.3 0 0 S 14 27 leichter Regen ---
Hannover-Flh. 59 1010.7 4.4 2.6 5.7 83 0.0 2 0 S 21 37 bedeckt ---
Magdeburg 76 1012.8 4.4 1.3 4.9 65 0.0 0 0 S 14 30 leichter Regen ---
Potsdam 81 1014.0 1.9 0.1 2.4 73 0.0 0 0 S 16 35 stark bewölkt ---
Berlin-Tegel 37 1014.0 2.5 0.9 2.9 69 0.0 0 0 S 19 28 stark bewölkt ---
Berlin-Tempelhof 48 1014.4 2.4 0.7 3.1 69 0.0 0 --- S 12 30 --- ---
Berlin-Dahlem 51 1014.3 2.1 0.2 2.1 --- ---- 0 0 S 22 --- stark bewölkt ---
Lindenberg 91 1015.7 -0.6 -0.9 1.1 85 0.0 0 0 S 13 26 gering bewölkt ---
Düsseldorf-Flh. 45 1011.1 4.1 3.5 5.7 98 1.3 2 0 SO 30 46 leichter Regen ---
Essen 150 1010.8 3.5 3.0 5.1 99 1.1 1 0 S 14 36 leichter Regen ---
Kahler Asten 839 ------ -1.2 -2.4 -1.0 97 0.7 3 3 SW 31 57 Glatteisbildung Windböen
Bad Lippspringe 157 1011.5 3.7 2.6 4.6 90 2.7 8 0 S 10 18 leichter Regen ---
Fritzlar 174 1014.3 2.9 1.1 3.9 74 ---- 0 0 S 14 --- leichter Regen ---
Brocken 1142 ------ -4.7 -4.9 -4.3 91 ---- 0 10 SW 86 109 Schneefall orkanartige böen
Leipzig-Flh. 142 1014.9 3.0 0.8 3.1 65 0.0 0 0 S 19 39 stark bewölkt ---
Dresden-Flh. 227 1016.3 1.2 -0.6 1.7 66 0.0 0 0 SO 23 33 gering bewölkt ---
Cottbus 69 1016.3 0.1 0.0 1.4 79 0.0 0 0 S 11 24 --- ---
Görlitz 238 1017.9 0.7 -1.8 1.2 73 0.0 0 0 S 18 41 wolkenlos ---
Aachen 231 1010.9 4.7 3.7 5.7 94 0.3 1 0 SW 24 40 leichter Regen ---
Nürburg 485 1012.8 1.5 0.2 2.2 97 0.6 2 0 S 8 20 leichter Regen ---
Köln/Bonn-Flh. 92 1012.2 3.2 3.0 4.9 93 1.4 11 0 SO 17 26 leichter Regen ---
Gießen/Wettenberg 203 1014.8 1.7 1.2 2.4 83 0.1 0 0 SO 10 20 leichter Regen ---
Wasserkuppe 921 ------ -3.1 -3.4 -2.4 84 0.0 0 1 S 27 38 stark bewölkt ---
Meiningen 450 1017.7 -0.9 -1.3 -0.2 82 0.0 0 0 S 10 23 --- ---
Erfurt 316 1014.9 2.7 -0.3 3.5 59 0.0 0 0 S 19 35 stark bewölkt ---
Gera 311 1015.6 1.5 -0.3 1.6 66 0.0 0 0 S 26 40 --- ---
Fichtelberg 1213 ------ -4.4 -5.9 -1.8 65 ---- --- 8 SW 55 60 --- Windböen
Trier 265 1013.9 2.0 1.5 4.1 93 0.6 2 0 SW 14 21 Regen ---
Hahn-Flh. 497 1013.9 0.6 0.3 3.1 92 0.2 0 0 SO 16 25 leichter Regen ---
Frankfurt/M-Flh. 112 1016.0 2.7 -0.3 2.7 73 0.0 0 0 S 8 17 bedeckt ---
OF-Wetterpark 119 1016.0 2.3 0.8 2.4 78 0.0 0 0 SO 5 9   ---
Würzburg 268 1018.0 -0.1 -0.4 1.2 78 0.0 0 0 S 3 8 --- ---
Bamberg 239 1018.3 -0.2 -3.0 0.0 81 0.0 0 0 S 6 16 --- ---
Hof 567 1017.9 -0.9 -1.8 -0.6 75 0.0 0 0 S 8 19 --- ---
Weiden 438 1020.0 -2.5 -3.8 -0.3 91 0.0 0 0 SW 6 15 --- ---
Saarbrücken-Flh. 320 1015.4 1.8 0.6 2.6 74 0.0 0 0 S 14 28 bedeckt ---
Karlsruhe-Rheinst. 116 1017.0 -1.4 -2.9 -0.6 92 0.0 0 0 S 6 8 --- ---
Mannheim 96 1016.4 1.8 1.4 2.4 77 0.0 0 0 S 13 18 --- ---
Stuttgart-Flh. 371 1017.5 -0.8 -3.8 0.9 76 0.0 0 0 SW 5 11 stark bewölkt ---
Öhringen 276 1017.5 0.0 0.0 1.7 72 0.0 0 0 SO 3 14 --- ---
Nürnberg-Flh. 314 1018.4 -1.4 -2.9 0.7 83 0.0 0 0 O 18 22 bewölkt ---
Regensburg 366 1020.5 -2.5 -2.7 1.3 95 0.0 0 0 SO 10 17 --- ---
Straubing 351 1021.2 -3.6 -4.2 0.6 98 0.0 0 0 SO 10 16 --- ---
Großer Arber 1436 ------ -2.5 -7.5 -2.5 17 0.0 0 48 SW 23 28 wolkenlos ---
Lahr 155 1017.0 0.0 -1.6 1.9 84 0.0 0 0 S 7 11   ---
Freudenstadt 797 ------ -2.9 -4.2 -1.2 87 0.0 0 1 W 13 22 --- ---
Stötten 734 1018.1 -2.3 -3.2 -1.0 77 0.0 0 0 S 16 33 --- ---
Augsburg 462 1020.5 -5.9 -6.1 -0.5 97 0.0 0 0 S 4 10 --- ---
München-Flh. 444 1021.0 -5.2 -7.1 0.5 97 0.0 0 0 NO 3 8 gering bewölkt ---
Fürstenzell 476 1021.4 -2.8 -4.2 1.7 98 0.0 0 0 O 6 14 gefrierender Nebel ---
Feldberg/Schw. 1486 ------ 2.7 -7.1 3.3 9 0.0 0 59 SW 44 50 --- Windböen
Konstanz 443 1019.9 -2.5 -2.8 1.6 97 0.0 0 0 W 8 10 gefrierender Nebel ---
Kempten 705 1020.7 -5.8 -6.3 -2.7 86 0.0 0 0 O 8 14 --- ---
Oberstdorf 806 ------ -8.7 -12.1 -5.1 94 0.0 0 4 O 4 8 --- ---
Zugspitze 2960 ------ -3.6 -9.7 -3.5 18 ---- --- 100 W 9 23 --- ---
Hohenpeißenberg 977 ------ 2.4 -4.4 3.0 11 0.0 0 4 SO 6 12 --- ---

                                                                                          Tabelle: 19 : 00 UHR   

STATIONHÖHELUFTD.TEMP.T-MinT-MaxU%RR1RR12SSSDDFFFXWetter+WolkenBöen
UFS TW Ems 0 ------ --- --- --- --- ---- --- --- -- --- --- --- ---
UFS Deutsche Bucht 26 ------ --- --- --- --- ---- --- --- -- --- --- --- ---
Helgoland 4 1003.1 6.9 6.7 7.6 88 0.0 0 0 SW 18 30 --- ---
List/Sylt 26 1002.5 5.8 5.7 7.8 92 0.0 0 0 S 22 28 --- ---
Schleswig 43 1003.8 5.3 4.8 5.9 96 0.0 1 0 S 6 14 --- ---
Leuchtturm Kiel 5 1004.1 5.2 5.0 5.6 95 ---- --- --- SW 21 27 --- ---
Kiel 27 1004.0 5.2 4.9 5.4 97 0.0 1 0 S 9 16 Dunst oder flacher Nebel ---
Fehmarn 3 1004.5 5.0 4.6 5.3 95 0.0 2 0 S 10 15 leichter Regen ---
Arkona 42 1006.1 2.6 2.3 3.2 98 0.2 3 0 S 23 31 Regen ---
Norderney 11 1003.2 5.2 5.2 6.3 96 0.0 0 0 S 13 21 Dunst oder flacher Nebel ---
Leuchtt. Alte Weser 32 1003.3 6.0 5.2 6.6 98 ---- --- --- SW 22 --- --- ---
Cuxhaven 5 1003.9 5.9 5.5 6.4 99 0.0 1 0 S 8 14 leichter Regen ---
Hamburg-Flh 11 1004.6 4.9 4.6 5.7 94 0.5 4 0 S 11 15 leichter Regen ---
Schwerin 59 1005.3 3.3 2.6 3.6 96 0.3 6 0 S 8 18 Regen ---
Rostock 4 1005.4 3.6 3.4 4.1 95 0.4 6 0 S 11 21 Regen ---
Greifswald 2 1006.5 1.9 1.9 3.0 94 0.2 4 0 S 8 22 leichter Regen ---
Emden 0 1003.4 5.2 5.2 6.9 97 0.0 0 0 S 9 17 Dunst oder flacher Nebel ---
Bremen-Flh. 5 1004.6 5.0 4.9 5.6 100 0.1 3 0 S 10 17 leichter Regen ---
Lüchow 17 ------ --- --- --- --- ---- --- --- -- --- ---   ---
Marnitz 81 1006.0 2.1 2.1 2.9 96 ---- --- 0 S 9 19 Regen ---
Waren 70 1006.3 2.2 2.1 3.1 92 0.0 7 0 S 19 27 leichter Regen ---
Neuruppin 38 1007.0 2.2 1.9 3.9 88 0.0 1 0 S 6 17 --- ---
Angermünde 56 1007.6 3.0 1.6 3.5 69 0.0 0 0 S 14 25 --- ---
Münster/Osnabr.-Flh. 48 1005.2 4.4 4.4 5.1 99 0.0 5 0 S 10 18 leichter Regen ---
Hannover-Flh. 59 1005.4 2.8 2.8 4.4 95 0.3 4 0 S 11 17 leichter Regen ---
Magdeburg 76 1006.7 2.0 1.9 4.4 85 0.9 11 0 S 15 23 leichter Regen ---
Potsdam 81 1007.2 3.8 1.9 3.9 65 0.0 0 0 S 16 32 stark bewölkt ---
Berlin-Tegel 37 1007.4 4.1 2.4 4.7 64 0.0 0 0 SO 12 25 bedeckt ---
Berlin-Tempelhof 48 1007.7 3.3 2.4 4.4 69 0.0 0 --- S 12 21 --- ---
Berlin-Dahlem 51 1007.6 3.4 2.0 4.2 --- ---- 0 0 S 18 --- stark bewölkt ---
Lindenberg 91 1008.5 1.7 -0.8 3.5 72 0.0 0 0 SO 10 19 bedeckt ---
Düsseldorf-Flh. 45 1006.0 4.9 4.1 5.2 94 0.0 8 0 S 14 22 bedeckt ---
Essen 150 1005.9 3.8 3.5 4.0 99 0.0 7 0 SW 7 18 Dunst oder flacher Nebel ---
Kahler Asten 839 ------ -1.8 -1.8 -0.9 96 0.4 8 8 SW 19 27 Schneefall ---
Bad Lippspringe 157 1005.9 2.5 2.3 3.9 92 0.0 7 0 S 6 11 Regen ---
Fritzlar 174 1007.5 0.6 0.6 2.9 94 ---- 1 0 S 11 --- Schneeregen ---
Brocken 1142 ------ -4.7 -4.7 -2.4 95 ---- 3 12 SW 53 71 leichter Schneefall Sturmböen
Leipzig-Flh. 142 1007.6 3.2 3.0 4.3 65 0.0 0 0 S 15 22 bedeckt ---
Dresden-Flh. 227 1009.0 1.5 1.1 4.6 69 0.0 0 0 SO 27 38 stark bewölkt ---
Cottbus 69 1008.5 2.7 -0.3 6.2 63 0.0 0 0 S 12 23 --- ---
Görlitz 238 1010.0 2.0 0.4 3.9 57 0.0 0 0 SW 15 32 --- ---
Aachen 231 1006.1 4.1 3.6 4.7 93 0.0 7 0 S 16 26   ---
Nürburg 485 1007.2 1.7 0.9 1.8 99 0.0 3 0 SW 10 18 --- ---
Köln/Bonn-Flh. 92 1006.4 3.4 3.1 4.0 95 0.0 6 0 SO 10 13 bedeckt ---
Gießen/Wettenberg 203 1007.7 0.2 0.2 1.9 100 0.0 8 0 S 4 10 Schneefall ---
Wasserkuppe 921 ------ -2.7 -3.3 -1.1 98 0.4 1 2 S 34 46 Schneefall ---
Meiningen 450 1009.0 -1.3 -1.4 -0.1 94 0.3 0 1 S 14 23 leichter Schneefall ---
Erfurt 316 1007.4 1.6 1.6 3.3 73 0.0 0 0 S 21 29 leichter Schneefall ---
Gera 311 1008.5 1.6 0.8 2.7 73 0.0 0 0 S 16 23 --- ---
Fichtelberg 1213 ------ -1.3 -4.4 -0.9 33 ---- --- 7 SW 54 61 --- Windböen
Trier 265 1007.9 4.0 1.9 4.0 97 0.2 5 0 S 12 19 Regen ---
Hahn-Flh. 497 1007.7 1.6 0.5 2.6 98 0.2 5 0 SW 12 22 leichter Regen ---
Frankfurt/M-Flh. 112 1008.7 0.9 0.9 3.0 96 1.3 8 0 S 14 21 kräftiger Schneeregen ---
OF-Wetterpark 119 1008.4 1.3 1.1 3.8 98 1.7 6 1 S 7 12 Schneeregen ---
Würzburg 268 1010.0 0.0 -1.0 2.1 97 0.8 1 0 S 10 13 leichter Schneefall ---
Bamberg 239 1010.1 0.3 -0.9 2.7 91 0.3 0 0 SO 12 24 Schneefall ---
Hof 567 1009.0 0.3 -1.4 0.7 70 0.0 0 0 S 12 26 --- ---
Weiden 438 1010.5 0.0 -2.3 2.1 76 0.0 0 0 SW 6 14 --- ---
Saarbrücken-Flh. 320 1009.4 1.2 0.9 2.7 96 1.0 8 0 SW 21 29 leichter Regen ---
Karlsruhe-Rheinst. 116 1009.8 3.3 -1.4 3.3 92 1.1 3 0 SW 24 36 leichter Regen ---
Mannheim 96 1009.6 1.2 1.2 3.6 96 2.2 6 0 S 18 32 Schneeregen ---
Stuttgart-Flh. 371 1009.9 2.5 -3.6 3.5 91 1.6 5 0 S 13 24 leichter Regen ---
Öhringen 276 1009.7 0.8 -0.8 4.0 95 1.2 3 0 N 3 6 leichter Regen ---
Nürnberg-Flh. 314 1010.4 0.1 -1.7 1.9 94 1.2 3 1 SO 7 13 leichter Schneefall ---
Regensburg 366 1010.9 0.1 -2.5 0.9 85 0.0 0 0 SO 9 20 --- ---
Straubing 351 1011.3 -0.9 -4.1 1.6 91 0.0 0 0 O 7 10 --- ---
Großer Arber 1436 ------ 0.0 -2.5 4.3 11 0.0 0 47 SW 27 37 --- ---
Lahr 155 1011.0 3.7 -0.2 4.1 91 2.0 8 0 S 21 31 Regen ---
Freudenstadt 797 ------ -0.4 -2.8 2.8 97 1.4 3 3 SW 18 43 Schneefall ---
Stötten 734 1009.6 1.3 -2.4 3.5 93 0.0 1 0 SW 11 23 Regen ---
Augsburg 462 1011.0 -0.1 -6.6 0.9 92 0.0 0 0 SO 4 9 --- ---
München-Flh. 444 1011.2 -0.5 -6.6 1.2 86 0.0 0 0 NO 4 15 bedeckt ---
Fürstenzell 476 1011.4 -0.6 -3.8 2.7 71 0.0 0 0 O 10 18 --- ---
Feldberg/Schw. 1486 ------ -3.7 -3.8 3.3 96 2.2 11 63 SW 50 84 kräftiger Schneefall Sturmböen
Konstanz 443 1012.4 1.6 -2.5 1.8 84 0.1 0 0 W 10 24 leichter Schneefall ---
Kempten 705 1011.7 0.9 -6.5 1.7 89 0.0 0 0 S 6 14 --- ---
Oberstdorf 806 ------ -0.1 -10.6 0.0 99 0.0 0 4 O 6 12 --- ---
Zugspitze 2960 ------ -5.4 -5.4 -1.8 31 ---- --- --- S 17 25 --- ---
Hohenpeißenberg 977 ------ 2.5 0.3 6.2 46 0.0 0 4 NW 13 22 --- ---

 

  • Wetterzustand
  • Windrichtung und -geschwindigkeit
  • Luftdruck
  • relative Luftfeuchtigkeit
  • Sichtweite
  • Gesamtbedeckungsgrad
  • Niederschlag
  • Sonnenscheindauer

 Höhe:     m über NN
Luftd.:   auf Meereshöhe reduzierter Luftdruck in hPa
TEMP.:   Lufttemperatur in Grad Celsius
T-MIN:   Minimumtemperatur der Luft in 2m Höhe in Grad Celsius, von 18 UTC Vortag bis 06 UTC heute
T-MAX:  Maximumtemperatur der Luft in 2m Höhe in Grad Celsius, von 18 UTC Vortag bis 06 UTC heute
RR1:     Niederschlagsmenge, einstündig, mm ist gleich Liter pro
RR12:   Niederschlagsmenge, 12 stündig, 18 UTC Vortag bis 06 UTC heute in mm ist gleich Liter pro
SSS:     Gesamtschneehöhe
DD:      Windrichtung
FF:       Windgeschwindigkeit letztes 10-Minutenmittel in km/h
FX:       höchste Windspitze während der letzten Stunde in km/h
---:      Wert nicht vorhanden

 

2009-2019

Unwetterwarnungen

 

  Radarbild           

aktueller Radarfilm Deutschland

  Europa-Meteoalarm